Orlando, Florida
Traffic Map
Current Weather Conditions
Orlando, Florida
Clear
Clear
78°
Feels Like: 80°
Wind Chill: 78° Ceiling: Unl
Heat Index: 80° Visibility: 10mi
Dew Point: 64° Wind: 10mph
Humidity: 62% Direction: 60° (ENE)
Pressure: 29.92in Gusts: 0mph
Raw Report DataKORL 221953Z 06009KT 10SM CLR 26/18 A2992 RMK AO2 SLP136 T02560178
Traffic Incident Summary
Active as of:
Severity:
Category:
InformationThere was an issue retrieving the traffic information for this location. Please try a different location or try again shortly.
Advertisements